DCEFE EDDS-EDSB
Flight info
| Callsign | DCEFE |
|---|---|
| Flight time | 0h 31m |
| Altitude | 14000 |
| Route | KRH2H/07 KRH KRH1L STAY1/0030 |
| Aircraft | C25C/M-SDE2E3FGHRWXY/LB1 |
Departure
| Time | 2026-05-08 19:24 |
|---|---|
| Airport | Stuttgart Airport (EDDS) |
Arrival
| Time | 2026-05-08 19:56 |
|---|---|
| Airport | Karlsruhe Baden-Baden Airport (EDSB) |
| Time | Latitude | Longitude | Altitude | Speed | Heading |
|---|---|---|---|---|---|
| 2026-05-08 18:58 | 48.69087 | 9.20843 | 1279 ft | 0 kts | 345° |
| 2026-05-08 19:16 | 48.69095 | 9.20848 | 1279 ft | 2 kts | 46° |
| 2026-05-08 19:16 | 48.69097 | 9.20854 | 1279 ft | 0 kts | 72° |
| 2026-05-08 19:17 | 48.69088 | 9.20870 | 1279 ft | 2 kts | 173° |
| 2026-05-08 19:17 | 48.69060 | 9.20857 | 1279 ft | 7 kts | 183° |
| 2026-05-08 19:17 | 48.69010 | 9.20879 | 1279 ft | 8 kts | 142° |
| 2026-05-08 19:18 | 48.69011 | 9.20958 | 1279 ft | 8 kts | 73° |
| 2026-05-08 19:18 | 48.69029 | 9.21048 | 1279 ft | 9 kts | 73° |
| 2026-05-08 19:18 | 48.69040 | 9.21146 | 1279 ft | 10 kts | 96° |
| 2026-05-08 19:18 | 48.69023 | 9.21250 | 1279 ft | 10 kts | 103° |
| 2026-05-08 19:19 | 48.69006 | 9.21360 | 1279 ft | 11 kts | 104° |
| 2026-05-08 19:19 | 48.68987 | 9.21476 | 1279 ft | 12 kts | 103° |
| 2026-05-08 19:19 | 48.68976 | 9.21547 | 1279 ft | 0 kts | 104° |
| 2026-05-08 19:23 | 48.68968 | 9.21593 | 1279 ft | 8 kts | 104° |
| 2026-05-08 19:23 | 48.68950 | 9.21714 | 1279 ft | 14 kts | 100° |
| 2026-05-08 19:23 | 48.68943 | 9.21878 | 1279 ft | 19 kts | 85° |
| 2026-05-08 19:24 | 48.68982 | 9.22166 | 1279 ft | 45 kts | 73° |
| 2026-05-08 19:24 | 48.69170 | 9.23098 | 1332 ft | 137 kts | 76° |
| 2026-05-08 19:24 | 48.69432 | 9.24696 | 1938 ft | 170 kts | 77° |
| 2026-05-08 19:24 | 48.69715 | 9.26549 | 2482 ft | 188 kts | 74° |
| 2026-05-08 19:25 | 48.70025 | 9.28519 | 2812 ft | 197 kts | 77° |
| 2026-05-08 19:25 | 48.70363 | 9.30532 | 3318 ft | 197 kts | 74° |
| 2026-05-08 19:25 | 48.70755 | 9.32514 | 3793 ft | 197 kts | 74° |
| 2026-05-08 19:25 | 48.71170 | 9.34518 | 4183 ft | 201 kts | 74° |
| 2026-05-08 19:26 | 48.71607 | 9.36596 | 4447 ft | 217 kts | 73° |
| 2026-05-08 19:26 | 48.72089 | 9.38765 | 5229 ft | 217 kts | 68° |
| 2026-05-08 19:26 | 48.73029 | 9.40569 | 5852 ft | 228 kts | 36° |
| 2026-05-08 19:26 | 48.74569 | 9.41096 | 6526 ft | 233 kts | 351° |
| 2026-05-08 19:27 | 48.76044 | 9.40122 | 7214 ft | 232 kts | 327° |
| 2026-05-08 19:27 | 48.77285 | 9.38560 | 7683 ft | 242 kts | 307° |
| 2026-05-08 19:27 | 48.77967 | 9.36129 | 7734 ft | 264 kts | 277° |
| 2026-05-08 19:27 | 48.78145 | 9.33303 | 8032 ft | 273 kts | 273° |
| 2026-05-08 19:28 | 48.78270 | 9.30430 | 8640 ft | 271 kts | 271° |
| 2026-05-08 19:28 | 48.78344 | 9.27567 | 9191 ft | 272 kts | 271° |
| 2026-05-08 19:28 | 48.78409 | 9.24717 | 9725 ft | 272 kts | 269° |
| 2026-05-08 19:28 | 48.78361 | 9.21841 | 10205 ft | 272 kts | 267° |
| 2026-05-08 19:29 | 48.78295 | 9.18978 | 10623 ft | 275 kts | 266° |
| 2026-05-08 19:29 | 48.78217 | 9.16059 | 11063 ft | 276 kts | 266° |
| 2026-05-08 19:29 | 48.78146 | 9.13141 | 11457 ft | 278 kts | 266° |
| 2026-05-08 19:29 | 48.78094 | 9.10222 | 11836 ft | 281 kts | 269° |
| 2026-05-08 19:30 | 48.78190 | 9.07245 | 12257 ft | 283 kts | 272° |
| 2026-05-08 19:30 | 48.78308 | 9.04241 | 12656 ft | 285 kts | 272° |
| 2026-05-08 19:30 | 48.78446 | 9.01264 | 13045 ft | 287 kts | 272° |
| 2026-05-08 19:30 | 48.78579 | 8.98221 | 13427 ft | 289 kts | 272° |
| 2026-05-08 19:31 | 48.78719 | 8.95194 | 13795 ft | 291 kts | 272° |
| 2026-05-08 19:31 | 48.78847 | 8.92103 | 13998 ft | 297 kts | 271° |
| 2026-05-08 19:31 | 48.78576 | 8.88949 | 14053 ft | 301 kts | 256° |
| 2026-05-08 19:31 | 48.78082 | 8.86016 | 14027 ft | 281 kts | 255° |
| 2026-05-08 19:32 | 48.77746 | 8.84153 | 13867 ft | 276 kts | 253° |
| 2026-05-08 19:32 | 48.77413 | 8.82398 | 13699 ft | 274 kts | 253° |
| 2026-05-08 19:32 | 48.76899 | 8.79647 | 13435 ft | 274 kts | 253° |
| 2026-05-08 19:33 | 48.76363 | 8.76856 | 13157 ft | 274 kts | 253° |
| 2026-05-08 19:33 | 48.75839 | 8.74102 | 12906 ft | 274 kts | 253° |
| 2026-05-08 19:33 | 48.75288 | 8.71278 | 12648 ft | 283 kts | 253° |
| 2026-05-08 19:33 | 48.74747 | 8.68436 | 12384 ft | 281 kts | 253° |
| 2026-05-08 19:34 | 48.74195 | 8.65610 | 12130 ft | 277 kts | 253° |
| 2026-05-08 19:34 | 48.73659 | 8.62802 | 11874 ft | 275 kts | 253° |
| 2026-05-08 19:34 | 48.73118 | 8.60012 | 11571 ft | 276 kts | 253° |
| 2026-05-08 19:34 | 48.72589 | 8.57250 | 11271 ft | 276 kts | 253° |
| 2026-05-08 19:35 | 48.72049 | 8.54440 | 10865 ft | 280 kts | 253° |
| 2026-05-08 19:35 | 48.71513 | 8.51592 | 10325 ft | 278 kts | 253° |
| 2026-05-08 19:35 | 48.70986 | 8.48835 | 9694 ft | 267 kts | 253° |
| 2026-05-08 19:35 | 48.70471 | 8.46149 | 9041 ft | 262 kts | 251° |
| 2026-05-08 19:36 | 48.69758 | 8.43636 | 8387 ft | 259 kts | 244° |
| 2026-05-08 19:36 | 48.68986 | 8.41174 | 7753 ft | 257 kts | 244° |
| 2026-05-08 19:36 | 48.68219 | 8.38769 | 7143 ft | 257 kts | 243° |
| 2026-05-08 19:36 | 48.67445 | 8.36293 | 6529 ft | 260 kts | 243° |
| 2026-05-08 19:37 | 48.66662 | 8.33799 | 6054 ft | 261 kts | 243° |
| 2026-05-08 19:37 | 48.65925 | 8.31386 | 6013 ft | 249 kts | 243° |
| 2026-05-08 19:37 | 48.65217 | 8.29045 | 6005 ft | 240 kts | 243° |
| 2026-05-08 19:37 | 48.64537 | 8.26730 | 5998 ft | 249 kts | 243° |
| 2026-05-08 19:38 | 48.63798 | 8.24244 | 6008 ft | 269 kts | 243° |
| 2026-05-08 19:38 | 48.63022 | 8.21682 | 6017 ft | 264 kts | 244° |
| 2026-05-08 19:38 | 48.62255 | 8.19168 | 6009 ft | 261 kts | 243° |
| 2026-05-08 19:38 | 48.61502 | 8.16716 | 6013 ft | 260 kts | 243° |
| 2026-05-08 19:39 | 48.60748 | 8.14228 | 6009 ft | 259 kts | 243° |
| 2026-05-08 19:39 | 48.59993 | 8.11752 | 6011 ft | 259 kts | 243° |
| 2026-05-08 19:39 | 48.59246 | 8.09258 | 6009 ft | 259 kts | 244° |
| 2026-05-08 19:39 | 48.58505 | 8.06809 | 6011 ft | 258 kts | 242° |
| 2026-05-08 19:40 | 48.57756 | 8.04346 | 6011 ft | 259 kts | 244° |
| 2026-05-08 19:40 | 48.57249 | 8.02692 | 6012 ft | 260 kts | 243° |
| 2026-05-08 19:40 | 48.56256 | 7.99462 | 5462 ft | 246 kts | 242° |
| 2026-05-08 19:40 | 48.55790 | 7.97898 | 5083 ft | 246 kts | 244° |
| 2026-05-08 19:41 | 48.55571 | 7.94490 | 4217 ft | 264 kts | 289° |
| 2026-05-08 19:41 | 48.56441 | 7.92145 | 4030 ft | 248 kts | 301° |
| 2026-05-08 19:41 | 48.57045 | 7.90698 | 4019 ft | 242 kts | 309° |
| 2026-05-08 19:41 | 48.58926 | 7.89464 | 4013 ft | 221 kts | 9° |
| 2026-05-08 19:42 | 48.59875 | 7.89987 | 4016 ft | 215 kts | 38° |
| 2026-05-08 19:42 | 48.60872 | 7.91654 | 4012 ft | 220 kts | 52° |
| 2026-05-08 19:42 | 48.62078 | 7.93207 | 3810 ft | 236 kts | 37° |
| 2026-05-08 19:42 | 48.63491 | 7.94576 | 3507 ft | 244 kts | 35° |
| 2026-05-08 19:43 | 48.64952 | 7.95936 | 3169 ft | 247 kts | 33° |
| 2026-05-08 19:43 | 48.66408 | 7.97254 | 2838 ft | 239 kts | 35° |
| 2026-05-08 19:43 | 48.67756 | 7.98514 | 2526 ft | 221 kts | 33° |
| 2026-05-08 19:43 | 48.69026 | 7.99699 | 2239 ft | 206 kts | 32° |
| 2026-05-08 19:44 | 48.70110 | 8.00711 | 2001 ft | 161 kts | 32° |
| 2026-05-08 19:44 | 48.70996 | 8.01548 | 1789 ft | 141 kts | 32° |
| 2026-05-08 19:44 | 48.71769 | 8.02272 | 1617 ft | 117 kts | 32° |
| 2026-05-08 19:44 | 48.72404 | 8.02865 | 1467 ft | 100 kts | 32° |
| 2026-05-08 19:45 | 48.72979 | 8.03413 | 1307 ft | 96 kts | 32° |
| 2026-05-08 19:45 | 48.73543 | 8.03909 | 1144 ft | 97 kts | 33° |
| 2026-05-08 19:45 | 48.74105 | 8.04444 | 1054 ft | 95 kts | 35° |
| 2026-05-08 19:45 | 48.74656 | 8.05000 | 929 ft | 98 kts | 34° |
| 2026-05-08 19:46 | 48.75231 | 8.05499 | 806 ft | 97 kts | 35° |
| 2026-05-08 19:46 | 48.75785 | 8.06081 | 702 ft | 96 kts | 33° |
| 2026-05-08 19:46 | 48.76983 | 8.07160 | 462 ft | 99 kts | 33° |
| 2026-05-08 19:47 | 48.77537 | 8.07679 | 407 ft | 83 kts | 32° |
| 2026-05-08 19:47 | 48.77976 | 8.08094 | 407 ft | 82 kts | 31° |
| 2026-05-08 19:47 | 48.78663 | 8.08742 | 734 ft | 136 kts | 34° |
| 2026-05-08 19:47 | 48.79509 | 8.09577 | 1213 ft | 156 kts | 34° |
| 2026-05-08 19:48 | 48.80443 | 8.10595 | 1729 ft | 175 kts | 40° |
| 2026-05-08 19:48 | 48.81401 | 8.11699 | 2245 ft | 164 kts | 38° |
| 2026-05-08 19:48 | 48.82430 | 8.12248 | 2510 ft | 161 kts | 5° |
| 2026-05-08 19:48 | 48.83557 | 8.11673 | 2483 ft | 185 kts | 328° |
| 2026-05-08 19:49 | 48.84345 | 8.10172 | 2538 ft | 196 kts | 295° |
| 2026-05-08 19:49 | 48.84559 | 8.08057 | 2519 ft | 204 kts | 263° |
| 2026-05-08 19:49 | 48.84112 | 8.06025 | 2547 ft | 206 kts | 235° |
| 2026-05-08 19:49 | 48.83113 | 8.04518 | 2452 ft | 208 kts | 211° |
| 2026-05-08 19:50 | 48.81896 | 8.03260 | 2233 ft | 217 kts | 210° |
| 2026-05-08 19:50 | 48.80664 | 8.02070 | 2211 ft | 198 kts | 210° |
| 2026-05-08 19:50 | 48.79554 | 8.01038 | 2235 ft | 181 kts | 211° |
| 2026-05-08 19:50 | 48.78504 | 8.00084 | 2171 ft | 172 kts | 209° |
| 2026-05-08 19:51 | 48.77459 | 7.99188 | 2023 ft | 175 kts | 209° |
| 2026-05-08 19:51 | 48.76402 | 7.98271 | 1983 ft | 169 kts | 208° |
| 2026-05-08 19:51 | 48.75393 | 7.97441 | 1962 ft | 164 kts | 208° |
| 2026-05-08 19:51 | 48.74421 | 7.96553 | 1944 ft | 162 kts | 212° |
| 2026-05-08 19:52 | 48.73467 | 7.95621 | 1968 ft | 161 kts | 214° |
| 2026-05-08 19:52 | 48.72507 | 7.94725 | 1970 ft | 160 kts | 194° |
| 2026-05-08 19:52 | 48.71474 | 7.94996 | 1961 ft | 146 kts | 140° |
| 2026-05-08 19:52 | 48.70791 | 7.96325 | 2063 ft | 180 kts | 107° |
| 2026-05-08 19:53 | 48.70793 | 7.98112 | 2135 ft | 168 kts | 71° |
| 2026-05-08 19:53 | 48.71183 | 7.99773 | 1994 ft | 169 kts | 66° |
| 2026-05-08 19:53 | 48.71677 | 8.01388 | 1764 ft | 167 kts | 60° |
| 2026-05-08 19:53 | 48.72294 | 8.02866 | 1552 ft | 157 kts | 40° |
| 2026-05-08 19:54 | 48.73220 | 8.03674 | 1453 ft | 147 kts | 30° |
| 2026-05-08 19:54 | 48.74032 | 8.04422 | 1243 ft | 126 kts | 35° |
| 2026-05-08 19:54 | 48.74668 | 8.05031 | 1069 ft | 98 kts | 32° |
| 2026-05-08 19:54 | 48.75268 | 8.05540 | 794 ft | 95 kts | 32° |
| 2026-05-08 19:55 | 48.75851 | 8.06121 | 667 ft | 100 kts | 29° |
| 2026-05-08 19:55 | 48.76453 | 8.06664 | 587 ft | 101 kts | 33° |
| 2026-05-08 19:55 | 48.77037 | 8.07214 | 469 ft | 95 kts | 33° |
| 2026-05-08 19:55 | 48.77557 | 8.07697 | 409 ft | 78 kts | 32° |
| 2026-05-08 19:56 | 48.77956 | 8.08075 | 407 ft | 59 kts | 32° |
| 2026-05-08 19:56 | 48.78226 | 8.08326 | 408 ft | 26 kts | 32° |
| 2026-05-08 19:56 | 48.78334 | 8.08424 | 408 ft | 16 kts | 32° |
| 2026-05-08 19:56 | 48.78366 | 8.08502 | 407 ft | 8 kts | 101° |
| 2026-05-08 19:57 | 48.78336 | 8.08586 | 406 ft | 10 kts | 121° |
| 2026-05-08 19:57 | 48.78290 | 8.08663 | 406 ft | 10 kts | 173° |
| 2026-05-08 19:57 | 48.78222 | 8.08612 | 406 ft | 12 kts | 211° |
| 2026-05-08 19:57 | 48.78147 | 8.08540 | 406 ft | 13 kts | 216° |
| 2026-05-08 19:58 | 48.78065 | 8.08462 | 406 ft | 15 kts | 208° |
| 2026-05-08 19:58 | 48.77968 | 8.08372 | 406 ft | 18 kts | 212° |
| 2026-05-08 19:58 | 48.77857 | 8.08271 | 406 ft | 20 kts | 210° |
| 2026-05-08 19:58 | 48.77737 | 8.08157 | 406 ft | 21 kts | 213° |
| 2026-05-08 19:59 | 48.77608 | 8.08034 | 406 ft | 22 kts | 211° |
| 2026-05-08 19:59 | 48.77486 | 8.07926 | 406 ft | 12 kts | 200° |
| 2026-05-08 19:59 | 48.77425 | 8.07991 | 406 ft | 12 kts | 121° |
| 2026-05-08 19:59 | 48.77360 | 8.08022 | 406 ft | 12 kts | 211° |
| 2026-05-08 20:00 | 48.77282 | 8.07949 | 406 ft | 14 kts | 213° |
| 2026-05-08 20:00 | 48.77195 | 8.07871 | 406 ft | 15 kts | 195° |
| 2026-05-08 20:00 | 48.77084 | 8.07863 | 406 ft | 17 kts | 181° |
| 2026-05-08 20:00 | 48.76989 | 8.07873 | 406 ft | 11 kts | 149° |
| 2026-05-08 20:01 | 48.76923 | 8.07855 | 406 ft | 5 kts | 213° |
| 2026-05-08 20:01 | 48.76915 | 8.07817 | 426 ft | 4 kts | 298° |
| 2026-05-08 20:01 | 48.76923 | 8.07796 | 406 ft | 0 kts | 303° |